createdAt,value
2023-05-18T00:01:03.871Z,62.53
2023-05-18T00:03:36.424Z,62.38
2023-05-18T00:06:08.702Z,62.47
2023-05-18T00:08:40.393Z,62.46
2023-05-18T00:11:11.568Z,62.33
2023-05-18T00:13:42.567Z,62.29
2023-05-18T00:16:16.153Z,62.34
2023-05-18T00:18:47.644Z,62.24
2023-05-18T00:21:18.750Z,62.23
2023-05-18T00:23:50.613Z,62.23
2023-05-18T00:26:22.236Z,62.33
2023-05-18T00:28:53.682Z,62.36
2023-05-18T00:31:24.722Z,62.34
2023-05-18T00:34:22.781Z,62.35
2023-05-18T00:37:53.107Z,62.10
2023-05-18T00:40:29.163Z,62.12
2023-05-18T00:43:00.775Z,62.13
2023-05-18T00:54:45.135Z,62.36
2023-05-18T00:57:16.373Z,62.39
2023-05-18T00:59:49.251Z,62.24
2023-05-18T01:02:20.512Z,62.31
2023-05-18T01:04:53.041Z,62.46
2023-05-18T01:07:26.716Z,62.31
2023-05-18T01:09:57.873Z,62.27
2023-05-18T01:12:37.493Z,62.34
2023-05-18T01:15:14.669Z,62.41
2023-05-18T01:18:01.029Z,62.44
2023-05-18T01:20:46.174Z,62.58
2023-05-18T01:24:00.531Z,62.37
2023-05-18T01:26:37.869Z,62.38
2023-05-18T01:29:14.218Z,62.41
2023-05-18T01:31:45.364Z,62.34
2023-05-18T01:34:16.500Z,62.47
2023-05-18T01:36:47.534Z,62.50
2023-05-18T01:39:19.190Z,62.43
2023-05-18T01:41:56.453Z,62.40
2023-05-18T01:44:35.536Z,62.36
2023-05-18T01:47:13.420Z,62.28
2023-05-18T01:49:53.176Z,62.41
2023-05-18T01:52:30.896Z,62.37
2023-05-18T01:55:05.381Z,62.67
2023-05-18T01:57:40.928Z,62.64
2023-05-18T02:00:17.722Z,62.72
2023-05-18T02:02:49.461Z,62.57
2023-05-18T02:05:21.156Z,62.63
2023-05-18T02:07:52.659Z,62.63
2023-05-18T02:10:24.786Z,62.94
2023-05-18T02:12:55.867Z,62.87
2023-05-18T02:15:26.997Z,63.09
2023-05-18T02:17:58.576Z,63.12
2023-05-18T02:20:32.900Z,63.34
2023-05-18T02:23:04.093Z,63.35
2023-05-18T02:25:35.123Z,63.32
2023-05-18T02:28:06.336Z,63.16
2023-05-18T02:30:37.444Z,63.29
2023-05-18T02:33:09.366Z,63.41
2023-05-18T02:35:41.382Z,63.48
2023-05-18T02:38:12.588Z,63.21
2023-05-18T02:40:43.846Z,63.39
2023-05-18T02:43:14.938Z,63.40
2023-05-18T02:45:46.087Z,63.36
2023-05-18T02:48:17.138Z,63.41
2023-05-18T02:50:49.515Z,63.52
2023-05-18T02:53:20.741Z,63.40
2023-05-18T02:55:57.153Z,63.50
2023-05-18T02:58:34.059Z,63.56
2023-05-18T03:01:13.468Z,63.62
2023-05-18T03:03:50.068Z,63.89
2023-05-18T03:06:23.541Z,63.97
2023-05-18T03:08:55.594Z,63.79
2023-05-18T03:11:29.355Z,63.73
2023-05-18T03:14:00.836Z,63.88
2023-05-18T03:16:31.965Z,63.89
2023-05-18T03:19:03.627Z,63.94
2023-05-18T03:21:38.914Z,63.90
2023-05-18T03:24:14.665Z,63.91
2023-05-18T03:26:46.407Z,64.02
2023-05-18T03:29:17.473Z,64.25
2023-05-18T03:31:49.233Z,64.20
2023-05-18T03:34:20.372Z,64.18
2023-05-18T03:36:51.827Z,63.98
2023-05-18T03:39:22.990Z,63.94
2023-05-18T03:41:54.117Z,63.89
2023-05-18T03:44:25.108Z,63.94
2023-05-18T03:46:56.449Z,64.14
2023-05-18T03:49:27.508Z,63.82
2023-05-18T03:52:55.340Z,63.63
2023-05-18T03:55:26.851Z,63.62
2023-05-18T03:57:59.396Z,63.69
2023-05-18T04:00:30.509Z,63.77
2023-05-18T04:03:03.579Z,63.39
2023-05-18T04:05:35.411Z,63.32
2023-05-18T04:08:07.812Z,63.47
2023-05-18T04:10:38.970Z,63.34
2023-05-18T04:13:10.049Z,63.49
2023-05-18T04:16:17.668Z,63.35
2023-05-18T04:18:46.352Z,63.39
2023-05-18T04:21:15.495Z,63.46
2023-05-18T04:23:44.500Z,63.26
2023-05-18T04:26:19.547Z,63.39
2023-05-18T04:28:47.107Z,63.42
2023-05-18T04:31:17.381Z,63.36
2023-05-18T04:33:46.842Z,63.35
2023-05-18T04:36:20.870Z,63.23
2023-05-18T04:38:50.241Z,62.94
2023-05-18T04:41:27.897Z,63.01
2023-05-18T04:43:56.289Z,63.14
2023-05-18T04:46:25.585Z,62.91
2023-05-18T04:48:57.435Z,62.77
2023-05-18T04:51:25.781Z,62.85
2023-05-18T04:53:55.225Z,62.86
2023-05-18T04:56:23.597Z,62.80
2023-05-18T04:58:52.001Z,62.89
2023-05-18T05:01:20.529Z,62.83
2023-05-18T05:03:50.098Z,62.90
2023-05-18T05:06:20.655Z,62.95
2023-05-18T05:08:54.895Z,63.09
2023-05-18T05:11:23.244Z,62.91
2023-05-18T05:13:53.889Z,63.00
2023-05-18T05:16:22.305Z,62.84
2023-05-18T05:18:51.426Z,62.72
2023-05-18T05:21:19.895Z,62.65
2023-05-18T05:23:48.572Z,62.80
2023-05-18T05:26:17.393Z,62.64
2023-05-18T05:28:46.975Z,62.68
2023-05-18T05:31:15.365Z,62.70
2023-05-18T05:33:45.429Z,62.70
2023-05-18T05:36:15.076Z,62.65
2023-05-18T05:38:44.383Z,62.57
2023-05-18T05:41:13.075Z,62.72
2023-05-18T05:43:42.107Z,62.41
2023-05-18T05:46:10.408Z,62.38
2023-05-18T05:48:38.801Z,62.34
2023-05-18T05:51:07.155Z,62.23
2023-05-18T05:53:35.750Z,62.37
2023-05-18T05:56:07.521Z,62.24
2023-05-18T05:58:41.754Z,62.28
2023-05-18T06:01:10.141Z,62.29
2023-05-18T06:03:40.828Z,62.02
2023-05-18T06:06:11.144Z,61.87
2023-05-18T06:08:39.729Z,61.75
2023-05-18T06:11:10.631Z,61.76
2023-05-18T06:13:41.205Z,61.55
2023-05-18T06:16:09.595Z,61.31
2023-05-18T06:18:39.123Z,61.42
2023-05-18T06:21:07.676Z,61.42
2023-05-18T06:23:36.162Z,61.33
2023-05-18T06:26:04.603Z,61.02
2023-05-18T06:28:33.064Z,60.54
2023-05-18T06:31:09.578Z,59.99
2023-05-18T06:33:47.679Z,59.34
2023-05-18T06:36:16.590Z,59.33
2023-05-18T06:38:45.339Z,59.22
2023-05-18T06:41:14.076Z,59.28
2023-05-18T06:43:42.400Z,59.28
2023-05-18T06:46:24.244Z,58.91
2023-05-18T06:48:56.737Z,58.63
2023-05-18T06:51:25.278Z,58.50
2023-05-18T06:53:53.717Z,58.48
2023-05-18T06:56:22.527Z,58.24
2023-05-18T06:58:51.051Z,57.84
2023-05-18T07:01:20.264Z,57.86
2023-05-18T07:03:50.992Z,57.83
2023-05-18T07:06:19.449Z,57.59
2023-05-18T07:08:48.227Z,57.45
2023-05-18T07:11:16.784Z,57.43
2023-05-18T07:13:45.524Z,57.41
2023-05-18T07:16:13.954Z,57.42
2023-05-18T07:18:42.426Z,57.00
2023-05-18T07:21:11.010Z,56.86
2023-05-18T07:23:39.393Z,56.89
2023-05-18T07:26:10.364Z,56.90
2023-05-18T07:28:38.743Z,56.67
2023-05-18T07:31:07.602Z,56.69
2023-05-18T07:33:39.107Z,56.65
2023-05-18T07:36:10.773Z,56.73
2023-05-18T07:38:39.096Z,56.88
2023-05-18T07:41:07.388Z,56.63
2023-05-18T07:43:35.695Z,56.55
2023-05-18T07:46:04.090Z,56.55
2023-05-18T07:48:32.385Z,56.40
2023-05-18T07:51:00.689Z,56.26
2023-05-18T07:53:29.026Z,56.17
2023-05-18T07:55:57.302Z,55.61
2023-05-18T07:58:25.785Z,55.27
2023-05-18T08:00:54.125Z,54.91
2023-05-18T08:03:22.629Z,54.76
2023-05-18T08:05:51.272Z,54.59
2023-05-18T08:08:19.951Z,54.56
2023-05-18T08:10:48.280Z,54.26
2023-05-18T08:13:16.631Z,53.66
2023-05-18T08:15:46.281Z,53.32
2023-05-18T08:18:22.524Z,53.18
2023-05-18T08:20:53.323Z,52.77
2023-05-18T08:23:21.646Z,52.56
2023-05-18T08:25:50.107Z,52.23
2023-05-18T08:28:18.427Z,51.76
2023-05-18T08:30:46.685Z,51.64
2023-05-18T08:33:14.978Z,51.63
2023-05-18T08:35:43.438Z,51.53
2023-05-18T08:38:14.576Z,51.16
2023-05-18T08:40:51.121Z,50.83
2023-05-18T08:43:22.827Z,51.17
2023-05-18T08:46:02.052Z,51.09
2023-05-18T08:48:33.218Z,51.10
2023-05-18T08:51:06.377Z,50.98
2023-05-18T08:53:37.939Z,50.92
2023-05-18T08:56:08.901Z,50.92
2023-05-18T08:58:44.313Z,51.01
2023-05-18T09:01:13.801Z,51.26
2023-05-18T09:03:43.273Z,51.29
2023-05-18T09:06:11.718Z,51.21
2023-05-18T09:08:41.265Z,51.22
2023-05-18T09:11:10.007Z,50.81
2023-05-18T09:13:39.084Z,50.61
2023-05-18T09:16:08.037Z,50.50
2023-05-18T09:18:36.563Z,50.53
2023-05-18T09:21:05.676Z,50.44
2023-05-18T09:23:34.326Z,50.55
2023-05-18T09:26:04.689Z,50.60
2023-05-18T09:28:36.520Z,50.89
2023-05-18T09:31:07.482Z,50.76
2023-05-18T09:33:37.755Z,50.61
2023-05-18T09:36:07.617Z,50.72
2023-05-18T09:38:39.996Z,50.65
2023-05-18T09:41:12.386Z,50.34
2023-05-18T09:43:44.420Z,50.26
2023-05-18T09:46:14.754Z,50.19
2023-05-18T09:48:45.378Z,50.32
2023-05-18T09:51:16.995Z,50.48
2023-05-18T09:53:49.209Z,50.53
2023-05-18T09:56:18.895Z,50.69
2023-05-18T09:58:47.505Z,50.54
2023-05-18T10:01:16.019Z,50.46
2023-05-18T10:03:45.231Z,50.62
2023-05-18T10:06:13.727Z,50.46
2023-05-18T10:08:42.338Z,50.24
2023-05-18T10:11:10.917Z,50.37
2023-05-18T10:13:41.992Z,50.49
2023-05-18T10:16:10.560Z,50.31
2023-05-18T10:18:40.490Z,50.35
2023-05-18T10:21:09.695Z,50.19
2023-05-18T10:23:40.230Z,50.08
2023-05-18T10:26:12.489Z,50.02
2023-05-18T10:28:43.961Z,50.36
2023-05-18T10:31:13.105Z,50.18
2023-05-18T10:33:44.043Z,50.10
2023-05-18T10:36:12.602Z,49.97
2023-05-18T10:38:45.286Z,50.00
2023-05-18T10:41:15.137Z,49.59
2023-05-18T10:43:45.485Z,49.45
2023-05-18T10:46:15.917Z,49.51
2023-05-18T10:48:48.320Z,49.24
2023-05-18T10:51:19.331Z,49.00
2023-05-18T10:53:48.247Z,48.83
2023-05-18T10:56:17.199Z,48.58
2023-05-18T10:58:46.562Z,48.35
2023-05-18T11:01:15.661Z,48.33
2023-05-18T11:03:44.662Z,48.47
2023-05-18T11:06:14.379Z,48.15
2023-05-18T11:08:50.648Z,48.17
2023-05-18T11:11:22.854Z,48.25
2023-05-18T11:13:52.404Z,48.14
2023-05-18T11:16:21.191Z,47.79
2023-05-18T11:18:51.956Z,47.72
2023-05-18T11:21:32.299Z,47.82
2023-05-18T11:24:19.258Z,47.56
2023-05-18T11:26:49.254Z,47.63
2023-05-18T11:29:19.385Z,47.79
2023-05-18T11:31:49.109Z,47.44
2023-05-18T11:34:44.233Z,47.21
2023-05-18T11:37:14.498Z,46.86
2023-05-18T11:39:59.384Z,46.76
2023-05-18T11:42:34.293Z,46.67
2023-05-18T11:45:08.639Z,46.65
2023-05-18T11:47:39.391Z,46.45
2023-05-18T11:50:11.272Z,46.71
2023-05-18T11:52:48.936Z,46.92
2023-05-18T11:55:19.416Z,47.09
2023-05-18T11:57:51.669Z,46.83
2023-05-18T12:00:21.571Z,46.96
2023-05-18T12:02:51.870Z,46.82
2023-05-18T12:05:21.054Z,46.70
2023-05-18T12:07:53.729Z,46.73
2023-05-18T12:10:22.818Z,46.70
2023-05-18T12:12:52.760Z,46.78
2023-05-18T12:15:24.253Z,46.80
2023-05-18T12:17:52.824Z,46.63
2023-05-18T12:20:24.407Z,46.87
2023-05-18T12:22:55.046Z,46.87
2023-05-18T12:25:26.280Z,47.13
2023-05-18T12:27:56.591Z,47.22
2023-05-18T12:30:33.910Z,47.29
2023-05-18T12:33:02.815Z,47.33
2023-05-18T12:35:32.314Z,47.11
2023-05-18T12:38:01.326Z,47.12
2023-05-18T12:40:43.711Z,47.11
2023-05-18T12:43:12.424Z,47.17
2023-05-18T12:45:43.736Z,47.09
2023-05-18T12:48:14.448Z,46.96
2023-05-18T12:50:48.552Z,46.78
2023-05-18T12:53:17.306Z,46.77
2023-05-18T12:55:45.588Z,46.83
2023-05-18T12:58:16.106Z,46.93
2023-05-18T13:00:46.236Z,47.02
2023-05-18T13:03:16.884Z,47.10
2023-05-18T13:05:47.150Z,47.08
2023-05-18T13:08:19.394Z,47.13
2023-05-18T13:10:55.224Z,46.97
2023-05-18T13:13:30.234Z,46.96
2023-05-18T13:16:00.567Z,47.10
2023-05-18T13:18:28.883Z,47.16
2023-05-18T13:20:59.628Z,47.36
2023-05-18T13:23:29.601Z,47.43
2023-05-18T13:25:59.217Z,47.52
2023-05-18T13:28:27.775Z,47.68
2023-05-18T13:30:56.138Z,47.48
2023-05-18T13:33:26.278Z,47.37
2023-05-18T13:35:54.545Z,47.51
2023-05-18T13:38:26.094Z,47.59
2023-05-18T13:40:55.023Z,47.46
2023-05-18T13:43:25.925Z,47.49
2023-05-18T13:45:54.549Z,47.43
2023-05-18T13:48:24.060Z,47.52
2023-05-18T13:50:54.082Z,47.42
2023-05-18T13:53:22.530Z,47.43
2023-05-18T13:55:53.220Z,47.59
2023-05-18T13:58:21.573Z,47.43
2023-05-18T14:00:49.999Z,47.41
2023-05-18T14:03:18.555Z,47.42
2023-05-18T14:05:47.200Z,47.52
2023-05-18T14:08:15.768Z,47.60
2023-05-18T14:10:44.178Z,47.58
2023-05-18T14:13:16.250Z,47.47
2023-05-18T14:15:44.668Z,47.38
2023-05-18T14:18:16.301Z,47.42
2023-05-18T14:20:47.516Z,47.68
2023-05-18T14:23:15.847Z,47.65
2023-05-18T14:25:45.418Z,47.65
2023-05-18T14:28:14.285Z,47.69
2023-05-18T14:30:42.556Z,47.84
2023-05-18T14:33:11.602Z,47.96
2023-05-18T14:35:39.986Z,48.05
2023-05-18T14:38:08.746Z,48.04
2023-05-18T14:40:37.261Z,47.95
2023-05-18T14:43:05.745Z,47.97
2023-05-18T14:45:34.135Z,47.99
2023-05-18T14:48:02.474Z,48.14
2023-05-18T14:50:30.910Z,47.92
2023-05-18T14:52:59.198Z,47.97
2023-05-18T14:55:27.462Z,48.13
2023-05-18T14:57:57.293Z,48.18
2023-05-18T15:00:28.099Z,48.24
2023-05-18T15:02:56.482Z,48.36
2023-05-18T15:05:25.730Z,48.42
2023-05-18T15:07:56.612Z,48.65
2023-05-18T15:10:24.994Z,48.63
2023-05-18T15:12:56.323Z,48.65
2023-05-18T15:15:32.348Z,48.56
2023-05-18T15:18:04.384Z,48.69
2023-05-18T15:20:34.444Z,48.85
2023-05-18T15:23:04.081Z,48.95
2023-05-18T15:25:32.513Z,49.09
2023-05-18T15:28:00.762Z,49.28
2023-05-18T15:30:32.240Z,49.26
2023-05-18T15:33:02.069Z,49.31
2023-05-18T15:35:31.487Z,49.32
2023-05-18T15:37:59.837Z,49.26
2023-05-18T15:40:30.929Z,49.34
2023-05-18T15:42:59.954Z,49.41
2023-05-18T15:45:29.210Z,49.45
2023-05-18T15:47:57.991Z,49.68
2023-05-18T15:50:26.846Z,49.54
2023-05-18T15:52:55.580Z,49.47
2023-05-18T15:55:23.957Z,49.68
2023-05-18T15:57:54.509Z,49.74
2023-05-18T16:00:23.780Z,49.96
2023-05-18T16:02:52.226Z,49.79
2023-05-18T16:05:20.622Z,49.62
2023-05-18T16:07:50.499Z,49.65
2023-05-18T16:10:18.799Z,49.54
2023-05-18T16:12:47.140Z,49.53
2023-05-18T16:15:15.712Z,49.44
2023-05-18T16:17:44.009Z,49.38
2023-05-18T16:20:13.265Z,49.43
2023-05-18T16:22:41.651Z,49.50
2023-05-18T16:25:10.668Z,49.62
2023-05-18T16:27:39.065Z,49.69
2023-05-18T16:30:10.050Z,49.78
2023-05-18T16:32:38.533Z,49.92
2023-05-18T16:35:08.524Z,49.91
2023-05-18T16:37:44.154Z,50.16
2023-05-18T16:40:13.439Z,50.18
2023-05-18T16:42:41.839Z,50.29
2023-05-18T16:45:11.079Z,50.31
2023-05-18T16:47:40.053Z,50.35
2023-05-18T16:50:10.425Z,50.42
2023-05-18T16:52:38.645Z,50.33
2023-05-18T16:55:08.915Z,50.54
2023-05-18T16:57:39.053Z,50.55
2023-05-18T17:00:13.613Z,50.66
2023-05-18T17:02:42.344Z,50.68
2023-05-18T17:05:11.572Z,50.83
2023-05-18T17:07:40.040Z,50.97
2023-05-18T17:10:10.303Z,50.94
2023-05-18T17:12:39.141Z,50.93
2023-05-18T17:15:12.155Z,51.09
2023-05-18T17:17:42.165Z,51.10
2023-05-18T17:20:12.352Z,51.13
2023-05-18T17:22:40.600Z,51.15
2023-05-18T17:25:10.214Z,51.31
2023-05-18T17:27:38.497Z,51.32
2023-05-18T17:30:09.459Z,51.39
2023-05-18T17:32:39.059Z,51.65
2023-05-18T17:35:10.201Z,51.84
2023-05-18T17:37:40.691Z,51.89
2023-05-18T17:40:11.203Z,52.19
2023-05-18T17:42:40.124Z,52.23
2023-05-18T17:45:10.778Z,52.23
2023-05-18T17:47:42.019Z,52.31
2023-05-18T17:50:12.098Z,52.28
2023-05-18T17:52:48.167Z,52.36
2023-05-18T17:55:19.540Z,52.44
2023-05-18T17:57:51.936Z,52.46
2023-05-18T18:00:22.173Z,52.36
2023-05-18T18:02:54.835Z,52.33
2023-05-18T18:05:23.600Z,52.36
2023-05-18T18:07:53.488Z,52.52
2023-05-18T18:10:23.400Z,52.50
2023-05-18T18:12:51.701Z,52.63
2023-05-18T18:15:26.855Z,52.68
2023-05-18T18:17:56.093Z,52.57
2023-05-18T18:20:24.592Z,52.60
2023-05-18T18:22:53.075Z,52.58
2023-05-18T18:25:21.832Z,52.56
2023-05-18T18:27:50.068Z,52.65
2023-05-18T18:30:20.171Z,52.66
2023-05-18T18:32:49.694Z,52.60
2023-05-18T18:35:18.975Z,52.64
2023-05-18T18:37:47.598Z,52.72
2023-05-18T18:40:17.539Z,52.66
2023-05-18T18:42:47.337Z,52.69
2023-05-18T18:45:16.000Z,52.71
2023-05-18T18:47:46.137Z,52.76
2023-05-18T18:50:18.115Z,52.89
2023-05-18T18:52:46.846Z,53.07
2023-05-18T18:55:18.507Z,53.03
2023-05-18T18:57:47.330Z,52.99
2023-05-18T19:00:19.660Z,53.11
2023-05-18T19:02:48.287Z,53.20
2023-05-18T19:05:21.206Z,53.21
2023-05-18T19:07:49.880Z,53.17
2023-05-18T19:10:18.169Z,53.06
2023-05-18T19:12:48.005Z,53.19
2023-05-18T19:15:16.573Z,53.36
2023-05-18T19:17:45.910Z,53.32
2023-05-18T19:20:14.401Z,53.43
2023-05-18T19:22:42.652Z,53.37
2023-05-18T19:25:11.841Z,53.44
2023-05-18T19:27:41.007Z,53.36
2023-05-18T19:30:12.634Z,53.50
2023-05-18T19:32:41.238Z,53.59
2023-05-18T19:35:09.746Z,53.61
2023-05-18T19:37:38.330Z,53.76
2023-05-18T19:40:07.930Z,53.83
2023-05-18T19:42:36.449Z,53.88
2023-05-18T19:45:06.159Z,53.83
2023-05-18T19:47:35.349Z,53.96
2023-05-18T19:50:04.078Z,54.03
2023-05-18T19:52:32.875Z,54.12
2023-05-18T19:55:02.596Z,54.03
2023-05-18T19:57:32.520Z,54.05
2023-05-18T20:00:02.454Z,54.15
2023-05-18T20:02:41.432Z,54.20
2023-05-18T20:05:12.047Z,54.35
2023-05-18T20:07:40.469Z,54.35
2023-05-18T20:10:08.845Z,54.39
2023-05-18T20:12:37.163Z,54.50
2023-05-18T20:15:08.174Z,54.43
2023-05-18T20:17:37.067Z,54.34
2023-05-18T20:20:07.581Z,54.28
2023-05-18T20:22:36.031Z,54.33
2023-05-18T20:25:05.889Z,54.18
2023-05-18T20:27:34.571Z,54.15
2023-05-18T20:30:03.006Z,54.29
2023-05-18T20:32:32.708Z,54.29
2023-05-18T20:35:01.880Z,54.22
2023-05-18T20:37:30.188Z,54.28
2023-05-18T20:40:00.980Z,54.46
2023-05-18T20:42:38.051Z,54.52
2023-05-18T20:45:08.376Z,54.57
2023-05-18T20:47:37.012Z,54.60
2023-05-18T20:50:08.513Z,54.55
2023-05-18T20:52:38.700Z,54.72
2023-05-18T20:55:08.968Z,54.71
2023-05-18T20:57:39.425Z,54.76
2023-05-18T21:00:11.993Z,54.80
2023-05-18T21:02:44.373Z,54.83
2023-05-18T21:05:13.949Z,54.90
2023-05-18T21:07:43.201Z,54.84
2023-05-18T21:10:12.208Z,54.88
2023-05-18T21:12:40.621Z,54.87
2023-05-18T21:15:10.935Z,54.92
2023-05-18T21:17:39.714Z,54.91
2023-05-18T21:20:10.515Z,55.02
2023-05-18T21:22:39.017Z,55.08
2023-05-18T21:25:08.913Z,54.93
2023-05-18T21:27:37.988Z,54.95
2023-05-18T21:30:10.091Z,54.88
2023-05-18T21:32:40.040Z,54.92
2023-05-18T21:35:08.976Z,54.86
2023-05-18T21:37:38.060Z,55.00
2023-05-18T21:40:09.522Z,54.97
2023-05-18T21:42:44.405Z,55.02
2023-05-18T21:45:17.617Z,55.02
2023-05-18T21:47:46.347Z,54.99
2023-05-18T21:50:14.598Z,55.12
2023-05-18T21:52:43.080Z,55.08
2023-05-18T21:55:12.213Z,55.24
2023-05-18T21:57:40.876Z,55.21
2023-05-18T22:00:13.211Z,55.47
2023-05-18T22:02:41.480Z,55.47
2023-05-18T22:05:10.838Z,55.53
2023-05-18T22:07:39.542Z,55.77
2023-05-18T22:10:08.565Z,55.66
2023-05-18T22:12:37.329Z,55.74
2023-05-18T22:15:09.827Z,55.84
2023-05-18T22:17:38.773Z,55.75
2023-05-18T22:20:10.565Z,55.66
2023-05-18T22:22:39.682Z,55.75
2023-05-18T22:25:09.563Z,55.77
2023-05-18T22:27:38.053Z,55.92
2023-05-18T22:30:08.095Z,55.76
2023-05-18T22:32:36.581Z,55.85
2023-05-18T22:35:06.671Z,56.07
2023-05-18T22:37:35.774Z,55.91
2023-05-18T22:40:05.938Z,55.90
2023-05-18T22:42:34.908Z,55.97
2023-05-18T22:45:03.773Z,56.11
2023-05-18T22:47:33.236Z,56.27
2023-05-18T22:50:01.475Z,56.43
2023-05-18T22:52:30.259Z,56.54
2023-05-18T22:54:58.560Z,56.71
2023-05-18T22:57:26.836Z,57.03
2023-05-18T22:59:55.099Z,57.08
2023-05-18T23:02:23.381Z,57.25
2023-05-18T23:04:51.723Z,57.32
2023-05-18T23:07:21.560Z,57.43
2023-05-18T23:09:51.690Z,57.60
2023-05-18T23:12:20.110Z,57.71
2023-05-18T23:14:49.264Z,57.89
2023-05-18T23:17:18.227Z,58.11
2023-05-18T23:19:47.762Z,58.22
2023-05-18T23:22:16.173Z,58.48
2023-05-18T23:24:45.423Z,58.63
2023-05-18T23:27:13.656Z,58.81
2023-05-18T23:29:42.096Z,58.95
2023-05-18T23:32:10.385Z,58.97
2023-05-18T23:34:39.515Z,59.25
2023-05-18T23:37:10.030Z,59.52
2023-05-18T23:39:45.311Z,59.61
2023-05-18T23:42:14.741Z,59.67
2023-05-18T23:44:45.195Z,59.72
2023-05-18T23:47:15.902Z,59.84
2023-05-18T23:49:45.408Z,59.86
2023-05-18T23:52:14.603Z,60.12
2023-05-18T23:54:45.034Z,60.20
2023-05-18T23:57:14.343Z,60.22
2023-05-18T23:59:42.863Z,60.35
